Terminal Aerodrome Forecast
Issued by NWS

Home | Current Version | Previous Version | Text Only | Print | Product List | Glossary On
Versions: 1 2 3 4 5 6 7 8 9 10 11 12 13 14 15 16 17 18 19 20 21
000
FTUS43 KICT 240520
TAFHUT
TAF
KHUT 240520Z 2406/2506 VRB04KT P6SM OVC012
      TEMPO 2408/2412 4SM BR OVC008
     FM241200 13005KT 2SM BR OVC005
     FM241500 16008KT 4SM BR OVC011
     FM241800 15011KT P6SM VCTS SCT020 BKN035CB=

USA.gov is the U.S. government's official web portal to all federal, state and local government web resources and services.